Date,TemperatureHighF,TemperatureAvgF,TemperatureLowF,DewpointHighF,DewpointAvgF,DewpointLowF,HumidityHigh,HumidityAvg,HumidityLow,PressureMaxIn,PressureMinIn,WindSpeedMaxMPH,WindSpeedAvgMPH,GustSpeedMaxMPH,PrecipitationSumIn
2013-7-1,84.0,74.8,73.0,76.0,73.7,69.0,100,97,69,30.03,29.88,9,0,9,1.54
2013-7-2,82.0,75.7,73.0,79.0,74.8,73.0,100,97,84,30.11,29.99,3,0,2,0.46
2013-7-3,86.0,76.8,72.0,79.0,75.0,72.0,100,95,70,30.14,30.07,7,0,6,0.34
2013-7-4,88.0,79.0,71.0,79.0,72.7,68.0,100,83,55,30.16,30.09,11,0,14,0.55
2013-7-5,87.0,78.1,73.0,78.0,73.4,68.0,100,87,55,30.17,30.07,6,0,9,1.20
2013-7-6,88.0,81.2,74.0,77.0,72.6,69.0,100,77,53,30.14,30.06,6,0,16,0.17
2013-7-7,88.0,81.6,74.0,77.0,72.4,67.0,100,76,52,30.15,30.06,4,0,10,0.00
2013-7-8,88.0,79.1,75.0,78.0,72.0,-99.9,100,83,54,30.17,30.09,6,0,7,0.00
2013-7-9,88.0,80.4,73.0,77.0,70.9,65.0,99,75,48,30.17,30.08,6,1,7,0.00
2013-7-10,88.0,77.5,74.0,76.0,67.6,-99.9,100,78,52,30.11,29.98,6,1,6,0.31
2013-7-11,92.0,79.9,74.0,77.0,71.9,67.0,100,78,46,30.04,29.92,3,0,6,0.31
2013-7-12,87.0,78.7,74.0,76.0,73.7,71.0,100,86,62,29.97,29.90,4,0,8,0.00
2013-7-13,88.0,78.9,73.0,78.0,72.2,69.0,100,81,53,30.02,29.92,12,0,12,0.05
2013-7-14,86.0,76.9,72.0,78.0,73.4,71.0,100,90,63,30.11,29.99,6,0,10,0.08
2013-7-15,85.0,76.2,70.0,76.0,72.3,70.0,100,89,64,30.12,30.03,6,0,4,0.06
2013-7-16,85.0,76.7,73.0,76.0,73.9,71.0,100,92,63,30.17,30.11,7,0,9,0.34
2013-7-17,87.0,77.2,74.0,77.0,74.2,70.0,100,92,59,30.17,30.09,4,0,2,0.45
2013-7-18,83.0,76.5,73.0,77.0,72.3,68.0,100,88,61,30.13,30.06,4,0,0,0.22
2013-7-19,87.0,75.1,73.0,74.0,72.8,70.0,100,94,62,30.15,30.04,5,0,5,0.01
2013-7-20,90.0,78.9,72.0,80.0,73.9,70.0,100,86,58,30.11,30.02,9,0,11,2.57
2013-7-21,92.0,79.6,73.0,79.0,73.8,69.0,100,85,50,30.13,30.02,5,0,9,0.02
2013-7-22,90.0,77.7,75.0,77.0,74.3,72.0,100,90,56,30.12,30.07,5,0,8,0.14
2013-7-23,84.0,77.2,74.0,79.0,74.5,73.0,100,92,73,30.10,29.95,6,0,6,0.16
2013-7-24,86.0,79.8,76.0,78.0,75.1,71.0,100,87,67,30.00,29.88,8,0,8,0.10
2013-7-25,86.0,80.1,75.0,77.0,75.1,72.0,98,86,68,29.98,29.87,4,0,12,0.05
2013-7-26,91.0,81.3,75.0,78.0,74.7,71.0,100,82,53,30.01,29.95,5,1,8,0.01
2013-7-27,92.0,81.3,74.0,78.0,74.2,71.0,100,81,50,30.00,29.90,6,0,10,0.02
2013-7-28,91.0,77.7,70.0,79.0,73.3,69.0,100,89,50,30.09,29.94,16,1,20,0.48
2013-7-29,89.0,77.1,71.0,79.0,73.5,71.0,100,90,56,30.15,30.04,9,0,9,5.76
2013-7-30,90.0,81.4,75.0,79.0,74.5,69.0,100,82,51,30.19,30.09,4,0,10,0.00
2013-7-31,89.0,80.7,75.0,80.0,74.8,71.0,100,84,58,30.15,30.01,5,0,5,0.41